N601EC KISM-KLAL
Flight info
| Callsign | N601EC |
|---|---|
| Flight time | N/A |
| Altitude | 2500 |
| Route | DCT |
| Aircraft | C172/L-SFG/C |
Departure
| Time | 2026-04-27 00:25 |
|---|---|
| Airport | Kissimmee Gateway Airport (KISM) |
Arrival
| Time | N/A |
|---|---|
| Airport | Lakeland Linder International Airport (KLAL) |
| Time | Latitude | Longitude | Altitude | Speed | Heading |
|---|---|---|---|---|---|
| 2026-04-27 00:08 | 28.29196 | -81.44094 | 90 ft | 0 kts | 223° |
| 2026-04-27 00:14 | 28.29189 | -81.44094 | 90 ft | 3 kts | 157° |
| 2026-04-27 00:18 | 28.29186 | -81.44091 | 90 ft | 1 kts | 117° |
| 2026-04-27 00:18 | 28.29170 | -81.44053 | 90 ft | 8 kts | 141° |
| 2026-04-27 00:19 | 28.29156 | -81.44026 | 91 ft | 0 kts | 95° |
| 2026-04-27 00:19 | 28.29159 | -81.44016 | 90 ft | 7 kts | 65° |
| 2026-04-27 00:20 | 28.29111 | -81.43955 | 92 ft | 16 kts | 146° |
| 2026-04-27 00:20 | 28.29109 | -81.43872 | 94 ft | 13 kts | 57° |
| 2026-04-27 00:20 | 28.29174 | -81.43755 | 95 ft | 22 kts | 57° |
| 2026-04-27 00:20 | 28.29284 | -81.43557 | 90 ft | 36 kts | 56° |
| 2026-04-27 00:21 | 28.29431 | -81.43284 | 91 ft | 43 kts | 59° |
| 2026-04-27 00:21 | 28.29474 | -81.43143 | 92 ft | 6 kts | 169° |
| 2026-04-27 00:21 | 28.29470 | -81.43138 | 92 ft | 0 kts | 125° |
| 2026-04-27 00:22 | 28.29469 | -81.43137 | 92 ft | 2 kts | 126° |
| 2026-04-27 00:22 | 28.29405 | -81.43104 | 93 ft | 12 kts | 214° |
| 2026-04-27 00:22 | 28.29341 | -81.43241 | 91 ft | 38 kts | 250° |
| 2026-04-27 00:23 | 28.29136 | -81.43602 | 94 ft | 68 kts | 236° |
| 2026-04-27 00:23 | 28.28848 | -81.44099 | 151 ft | 81 kts | 244° |
| 2026-04-27 00:23 | 28.28521 | -81.44659 | 270 ft | 88 kts | 240° |
| 2026-04-27 00:23 | 28.28156 | -81.45237 | 369 ft | 91 kts | 241° |
| 2026-04-27 00:24 | 28.27794 | -81.45850 | 449 ft | 94 kts | 241° |
| 2026-04-27 00:24 | 28.27452 | -81.46420 | 540 ft | 82 kts | 237° |
| 2026-04-27 00:24 | 28.27124 | -81.46959 | 520 ft | 87 kts | 239° |
| 2026-04-27 00:24 | 28.26715 | -81.47492 | 539 ft | 96 kts | 219° |
| 2026-04-27 00:25 | 28.26237 | -81.48002 | 671 ft | 91 kts | 231° |
| 2026-04-27 00:25 | 28.25811 | -81.48578 | 751 ft | 99 kts | 237° |
| 2026-04-27 00:25 | 28.25437 | -81.49243 | 892 ft | 101 kts | 243° |
| 2026-04-27 00:25 | 28.25010 | -81.49889 | 998 ft | 101 kts | 240° |
| 2026-04-27 00:26 | 28.24594 | -81.50506 | 1113 ft | 97 kts | 238° |
| 2026-04-27 00:26 | 28.24167 | -81.51109 | 1181 ft | 99 kts | 239° |
| 2026-04-27 00:26 | 28.23755 | -81.51717 | 1289 ft | 99 kts | 238° |
| 2026-04-27 00:26 | 28.23342 | -81.52346 | 1425 ft | 100 kts | 239° |
| 2026-04-27 00:27 | 28.22922 | -81.52975 | 1582 ft | 99 kts | 239° |
| 2026-04-27 00:27 | 28.22485 | -81.53601 | 1710 ft | 102 kts | 238° |
| 2026-04-27 00:27 | 28.22042 | -81.54238 | 1814 ft | 103 kts | 238° |
| 2026-04-27 00:27 | 28.21617 | -81.54884 | 1927 ft | 102 kts | 239° |
| 2026-04-27 00:28 | 28.21177 | -81.55515 | 2057 ft | 103 kts | 238° |
| 2026-04-27 00:28 | 28.20728 | -81.56136 | 2216 ft | 101 kts | 238° |
| 2026-04-27 00:28 | 28.20286 | -81.56761 | 2298 ft | 104 kts | 238° |
| 2026-04-27 00:28 | 28.19848 | -81.57414 | 2425 ft | 104 kts | 237° |
| 2026-04-27 00:29 | 28.19409 | -81.58083 | 2490 ft | 108 kts | 239° |
| 2026-04-27 00:29 | 28.18954 | -81.58742 | 2497 ft | 106 kts | 238° |
| 2026-04-27 00:29 | 28.18506 | -81.59414 | 2494 ft | 106 kts | 239° |
| 2026-04-27 00:29 | 28.18042 | -81.60070 | 2492 ft | 109 kts | 238° |
| 2026-04-27 00:30 | 28.17590 | -81.60757 | 2493 ft | 108 kts | 239° |
| 2026-04-27 00:30 | 28.17138 | -81.61427 | 2494 ft | 106 kts | 238° |
| 2026-04-27 00:30 | 28.16695 | -81.62087 | 2488 ft | 104 kts | 238° |
| 2026-04-27 00:30 | 28.16254 | -81.62737 | 2494 ft | 103 kts | 239° |
| 2026-04-27 00:31 | 28.15801 | -81.63376 | 2492 ft | 103 kts | 239° |
| 2026-04-27 00:31 | 28.15368 | -81.64023 | 2495 ft | 103 kts | 240° |
| 2026-04-27 00:31 | 28.14922 | -81.64656 | 2487 ft | 105 kts | 237° |
| 2026-04-27 00:31 | 28.14474 | -81.65326 | 2495 ft | 106 kts | 239° |
| 2026-04-27 00:32 | 28.14034 | -81.65983 | 2500 ft | 107 kts | 239° |
| 2026-04-27 00:32 | 28.13568 | -81.66639 | 2522 ft | 107 kts | 239° |
| 2026-04-27 00:32 | 28.13116 | -81.67276 | 2393 ft | 105 kts | 239° |
| 2026-04-27 00:32 | 28.12653 | -81.67909 | 2185 ft | 105 kts | 238° |
| 2026-04-27 00:33 | 28.12208 | -81.68554 | 1984 ft | 103 kts | 240° |
| 2026-04-27 00:33 | 28.11765 | -81.69179 | 1774 ft | 101 kts | 239° |
| 2026-04-27 00:33 | 28.11327 | -81.69811 | 1565 ft | 102 kts | 238° |
| 2026-04-27 00:33 | 28.10905 | -81.70411 | 1512 ft | 94 kts | 237° |
| 2026-04-27 00:34 | 28.10430 | -81.70929 | 1444 ft | 99 kts | 216° |
| 2026-04-27 00:34 | 28.09884 | -81.71274 | 1316 ft | 76 kts | 220° |
| 2026-04-27 00:34 | 28.09506 | -81.71615 | 1154 ft | 67 kts | 227° |
| 2026-04-27 00:34 | 28.09150 | -81.71953 | 1039 ft | 67 kts | 237° |
| 2026-04-27 00:35 | 28.08878 | -81.72355 | 904 ft | 63 kts | 246° |
| 2026-04-27 00:35 | 28.08574 | -81.72716 | 730 ft | 66 kts | 239° |
| 2026-04-27 00:35 | 28.08261 | -81.73076 | 582 ft | 64 kts | 239° |
| 2026-04-27 00:35 | 28.07894 | -81.73446 | 511 ft | 74 kts | 231° |
| 2026-04-27 00:36 | 28.07509 | -81.73901 | 455 ft | 86 kts | 221° |
| 2026-04-27 00:36 | 28.07096 | -81.74398 | 274 ft | 80 kts | 231° |
| 2026-04-27 00:36 | 28.06717 | -81.74818 | 163 ft | 67 kts | 224° |
| 2026-04-27 00:36 | 28.06494 | -81.75065 | 152 ft | 20 kts | 227° |